createdAt,value
2023-04-20T00:02:07.239Z,98330
2023-04-20T00:14:06.989Z,98320
2023-04-20T00:26:06.979Z,98280
2023-04-20T00:38:07.062Z,98260
2023-04-20T00:50:07.093Z,98240
2023-04-20T01:02:07.223Z,98230
2023-04-20T01:14:06.993Z,98210
2023-04-20T01:26:07.061Z,98190
2023-04-20T01:38:07.003Z,98180
2023-04-20T01:50:07.099Z,98180
2023-04-20T02:02:07.158Z,98190
2023-04-20T02:14:06.997Z,98190
2023-04-20T02:26:07.053Z,98180
2023-04-20T02:38:06.982Z,98140
2023-04-20T02:50:07.072Z,98130
2023-04-20T03:02:07.104Z,98110
2023-04-20T03:14:06.987Z,98100
2023-04-20T03:26:07.012Z,98110
2023-04-20T03:38:07.088Z,98110
2023-04-20T03:50:07.043Z,98100
2023-04-20T04:02:07.067Z,98100
2023-04-20T04:14:07.107Z,98080
2023-04-20T04:26:07.034Z,98080
2023-04-20T04:38:07.072Z,98070
2023-04-20T04:50:06.988Z,98060
2023-04-20T05:02:07.190Z,98050
2023-04-20T05:14:07.084Z,98050
2023-04-20T05:26:06.976Z,98060
2023-04-20T05:38:07.086Z,98070
2023-04-20T05:50:07.073Z,98060
2023-04-20T06:02:07.239Z,98060
2023-04-20T06:14:07.089Z,98060
2023-04-20T06:26:07.117Z,98050
2023-04-20T06:38:07.094Z,98050
2023-04-20T06:50:07.676Z,98050
2023-04-20T07:02:07.178Z,98050
2023-04-20T07:14:07.102Z,98050
2023-04-20T07:26:06.988Z,98040
2023-04-20T07:38:06.986Z,98040
2023-04-20T07:50:06.990Z,98060
2023-04-20T08:02:07.109Z,98050
2023-04-20T08:14:07.091Z,98050
2023-04-20T08:26:06.984Z,98050
2023-04-20T08:38:07.057Z,98040
2023-04-20T08:50:06.991Z,98040
2023-04-20T09:02:07.078Z,98040
2023-04-20T09:14:07.070Z,98040
2023-04-20T09:26:07.094Z,98040
2023-04-20T09:38:07.091Z,98040
2023-04-20T09:50:22.944Z,98070
2023-04-20T10:02:07.126Z,98070
2023-04-20T10:14:07.006Z,98070
2023-04-20T10:26:07.000Z,98060
2023-04-20T10:38:07.049Z,98060
2023-04-20T10:50:07.060Z,98040
2023-04-20T11:02:07.058Z,98040
2023-04-20T11:14:07.097Z,98030
2023-04-20T11:26:06.981Z,98010
2023-04-20T11:38:07.066Z,98010
2023-04-20T11:50:07.108Z,97990
2023-04-20T12:02:07.177Z,97980
2023-04-20T12:14:07.109Z,97980
2023-04-20T12:26:06.978Z,97980
2023-04-20T12:38:07.033Z,97970
2023-04-20T12:50:07.031Z,97980
2023-04-20T13:02:07.136Z,97960
2023-04-20T13:14:07.017Z,97970
2023-04-20T13:26:07.099Z,97960
2023-04-20T13:38:07.099Z,97990
2023-04-20T13:50:06.981Z,97970
2023-04-20T14:02:07.136Z,97950
2023-04-20T14:14:06.984Z,97920
2023-04-20T14:26:07.044Z,97920
2023-04-20T14:38:07.061Z,97900
2023-04-20T14:50:06.997Z,97900
2023-04-20T15:02:07.067Z,97900
2023-04-20T15:14:07.012Z,97940
2023-04-20T15:26:06.989Z,97940
2023-04-20T15:38:07.058Z,97930
2023-04-20T15:50:07.005Z,97950
2023-04-20T16:02:07.136Z,97940
2023-04-20T16:14:07.011Z,97950
2023-04-20T16:26:06.976Z,97950
2023-04-20T16:38:09.670Z,97960
2023-04-20T16:50:07.008Z,97970
2023-04-20T17:02:07.108Z,97960
2023-04-20T17:14:07.000Z,97950
2023-04-20T17:26:07.032Z,97960
2023-04-20T17:38:07.083Z,97950
2023-04-20T17:50:07.085Z,97960
2023-04-20T18:02:07.201Z,97940
2023-04-20T18:14:07.084Z,97940
2023-04-20T18:26:07.084Z,97940
2023-04-20T18:38:06.985Z,97950
2023-04-20T18:50:07.105Z,97950
2023-04-20T19:02:07.212Z,97940
2023-04-20T19:14:07.086Z,97930
2023-04-20T19:26:07.096Z,97920
2023-04-20T19:38:07.090Z,97920
2023-04-20T19:50:06.983Z,97940
2023-04-20T20:02:07.265Z,97940
2023-04-20T20:14:07.001Z,97950
2023-04-20T20:26:07.061Z,97960
2023-04-20T20:38:07.051Z,97920
2023-04-20T20:50:07.337Z,97930
2023-04-20T21:02:07.055Z,97930
2023-04-20T21:14:06.998Z,97900
2023-04-20T21:26:07.029Z,97890
2023-04-20T21:38:07.033Z,97880
2023-04-20T21:50:06.990Z,97910
2023-04-20T22:02:07.065Z,97900
2023-04-20T22:14:07.011Z,97890
2023-04-20T22:26:06.998Z,97850
2023-04-20T22:38:07.112Z,97850
2023-04-20T22:50:06.994Z,97840
2023-04-20T23:02:07.086Z,97830
2023-04-20T23:14:07.093Z,97820
2023-04-20T23:26:07.102Z,97810
2023-04-20T23:38:07.049Z,97780
2023-04-20T23:50:07.073Z,97790
